Menominee, MI

2:36 PM CST on January 28, 2015 (GMT -0600)
MARITIME | Change Station
CLOSE
Current Station
Personal Weather Station
Location: Sister Bay, WI
Elevation: 587 ft
Nearby Weather Stations

Elev 587 ft 45.20 °N, 87.12 °W | Updated 1 hour ago

Mostly Cloudy
Mostly Cloudy
32 °F
Feels Like 20 °F
N
21
Wind Variable Wind from SSW
Gusts 24.0 mph

Today
High -- | Low -- °F
--% Chance of Precip.
Yesterday
High -- | Low -- °F
Precip. -- in
7:15 AM 4:52 PM
Waxing Gibbous, 67% visible
Pressure 30.08 in
Visibility 10.0 miles
Clouds Mostly Cloudy 2000 ft
Windchill 20 °F
Dew Point Not available.
Humidity Not available.
Rainfall -999.00 in
Snow Depth Not available.
UV 1 out of 12
Pollen .10 out of 12
Air Quality Not available.
Flu Activity Not available.
METAR KMNM 282015Z AUTO 20008KT 10SM BKN020 M01/M06 A3008 RMK AO1

More Conditions Fewer Conditions

Pressure 30.08 in
Visibility 10.0 miles
Clouds Mostly Cloudy 2000 ft
Windchill 20 °F
Dew Point Not available.
Humidity Not available.
Rainfall -999.00 in
Snow Depth Not available.
UV 1 out of 12
Pollen .10 out of 12
Air Quality Not available.
Flu Activity Not available.
METAR KMNM 282015Z AUTO 20008KT 10SM BKN020 M01/M06 A3008 RMK AO1

More Conditions Fewer Conditions

10-Day Weather Forecast

Almanac

Astronomy

Jan. 28, 2015 Rise Set
Actual Time
Civil Twilight
Nautical Twilight
Astronomical Twilight
Moon
Length of Visible Light
Length of Day
Tomorrow will be .
, % of the Moon is Illuminated

Today's Extremes

State Highs State Lows

Community

WunderPhotos

Upload Photos

1,791,251 photos uploaded!

WunderBlogs® & News

Nearby

Air Quality

  Air Quality AQ Index Pollutant
Not available.

Snow Depth

Station Depth Elevation

Earthquake Activity

City Distance Mag. Time & Date
Minimum magnitude displayed is 2.5.

Coastal Water Temperatures

Place Temperature

Nearby Weather Stations